sensor_id;sensor_type;location;lat;lon;timestamp;P1;durP1;ratioP1;P2;durP2;ratioP2
52512;SDS011;38422;53.172;6.974;2024-01-06T00:02:16;11.77;;;9.38;;
52512;SDS011;38422;53.172;6.974;2024-01-06T00:04:41;11.52;;;8.88;;
52512;SDS011;38422;53.172;6.974;2024-01-06T00:07:07;12.77;;;9.50;;
52512;SDS011;38422;53.172;6.974;2024-01-06T00:09:33;12.57;;;9.25;;
52512;SDS011;38422;53.172;6.974;2024-01-06T00:11:58;12.23;;;8.93;;
52512;SDS011;38422;53.172;6.974;2024-01-06T00:14:24;12.23;;;9.18;;
52512;SDS011;38422;53.172;6.974;2024-01-06T00:16:50;11.45;;;8.75;;
52512;SDS011;38422;53.172;6.974;2024-01-06T00:19:15;12.38;;;9.35;;
52512;SDS011;38422;53.172;6.974;2024-01-06T00:21:42;12.85;;;10.10;;
52512;SDS011;38422;53.172;6.974;2024-01-06T00:24:08;13.00;;;9.88;;
52512;SDS011;38422;53.172;6.974;2024-01-06T00:26:34;12.32;;;9.32;;
52512;SDS011;38422;53.172;6.974;2024-01-06T00:28:59;12.45;;;9.38;;
52512;SDS011;38422;53.172;6.974;2024-01-06T00:31:25;13.38;;;9.65;;
52512;SDS011;38422;53.172;6.974;2024-01-06T00:33:51;12.68;;;9.27;;
52512;SDS011;38422;53.172;6.974;2024-01-06T00:36:16;13.90;;;9.60;;
52512;SDS011;38422;53.172;6.974;2024-01-06T00:38:42;12.98;;;9.90;;
52512;SDS011;38422;53.172;6.974;2024-01-06T00:41:08;12.85;;;8.73;;
52512;SDS011;38422;53.172;6.974;2024-01-06T00:43:33;11.52;;;8.85;;
52512;SDS011;38422;53.172;6.974;2024-01-06T00:45:59;11.27;;;8.68;;
52512;SDS011;38422;53.172;6.974;2024-01-06T00:48:25;12.65;;;9.05;;
52512;SDS011;38422;53.172;6.974;2024-01-06T00:50:51;12.30;;;9.43;;
52512;SDS011;38422;53.172;6.974;2024-01-06T00:53:16;12.13;;;8.57;;
52512;SDS011;38422;53.172;6.974;2024-01-06T00:55:42;12.45;;;9.00;;
52512;SDS011;38422;53.172;6.974;2024-01-06T00:58:07;11.55;;;8.65;;
52512;SDS011;38422;53.172;6.974;2024-01-06T01:00:34;12.57;;;9.07;;
52512;SDS011;38422;53.172;6.974;2024-01-06T01:02:59;11.25;;;8.75;;
52512;SDS011;38422;53.172;6.974;2024-01-06T01:05:25;11.57;;;8.05;;
52512;SDS011;38422;53.172;6.974;2024-01-06T01:07:50;11.57;;;8.40;;
52512;SDS011;38422;53.172;6.974;2024-01-06T01:10:16;12.55;;;8.88;;
52512;SDS011;38422;53.172;6.974;2024-01-06T01:12:42;11.48;;;8.75;;
52512;SDS011;38422;53.172;6.974;2024-01-06T01:15:08;11.75;;;8.43;;
52512;SDS011;38422;53.172;6.974;2024-01-06T01:17:33;11.95;;;8.70;;
52512;SDS011;38422;53.172;6.974;2024-01-06T01:19:59;12.07;;;8.65;;
52512;SDS011;38422;53.172;6.974;2024-01-06T01:22:25;11.73;;;8.30;;
52512;SDS011;38422;53.172;6.974;2024-01-06T01:24:50;11.38;;;8.20;;
52512;SDS011;38422;53.172;6.974;2024-01-06T01:27:16;11.75;;;8.77;;
52512;SDS011;38422;53.172;6.974;2024-01-06T01:29:42;12.88;;;8.75;;
52512;SDS011;38422;53.172;6.974;2024-01-06T01:32:07;10.85;;;8.13;;
52512;SDS011;38422;53.172;6.974;2024-01-06T01:34:33;14.55;;;8.85;;
52512;SDS011;38422;53.172;6.974;2024-01-06T01:36:59;13.48;;;8.85;;
52512;SDS011;38422;53.172;6.974;2024-01-06T01:39:25;11.50;;;7.82;;
52512;SDS011;38422;53.172;6.974;2024-01-06T01:41:51;11.85;;;8.20;;
52512;SDS011;38422;53.172;6.974;2024-01-06T01:44:16;11.35;;;8.18;;
52512;SDS011;38422;53.172;6.974;2024-01-06T01:46:42;11.13;;;8.10;;
52512;SDS011;38422;53.172;6.974;2024-01-06T01:49:08;10.93;;;7.45;;
52512;SDS011;38422;53.172;6.974;2024-01-06T01:51:34;11.95;;;8.13;;
52512;SDS011;38422;53.172;6.974;2024-01-06T01:54:01;11.73;;;7.93;;
52512;SDS011;38422;53.172;6.974;2024-01-06T01:56:28;12.10;;;8.48;;
52512;SDS011;38422;53.172;6.974;2024-01-06T01:59:00;14.43;;;8.75;;
52512;SDS011;38422;53.172;6.974;2024-01-06T02:01:30;13.55;;;8.35;;
52512;SDS011;38422;53.172;6.974;2024-01-06T02:03:56;11.77;;;8.02;;
52512;SDS011;38422;53.172;6.974;2024-01-06T02:06:23;13.40;;;8.80;;
52512;SDS011;38422;53.172;6.974;2024-01-06T02:08:48;11.88;;;8.15;;
52512;SDS011;38422;53.172;6.974;2024-01-06T02:11:14;11.45;;;8.30;;
52512;SDS011;38422;53.172;6.974;2024-01-06T02:13:40;12.10;;;8.65;;
52512;SDS011;38422;53.172;6.974;2024-01-06T02:16:06;12.80;;;8.25;;
52512;SDS011;38422;53.172;6.974;2024-01-06T02:18:32;13.27;;;8.55;;
52512;SDS011;38422;53.172;6.974;2024-01-06T02:20:58;12.77;;;8.02;;
52512;SDS011;38422;53.172;6.974;2024-01-06T02:25:51;12.43;;;8.13;;
52512;SDS011;38422;53.172;6.974;2024-01-06T02:28:17;12.35;;;7.97;;
52512;SDS011;38422;53.172;6.974;2024-01-06T02:30:43;13.98;;;8.85;;
52512;SDS011;38422;53.172;6.974;2024-01-06T02:33:09;12.82;;;8.32;;
52512;SDS011;38422;53.172;6.974;2024-01-06T02:35:35;11.70;;;8.13;;
52512;SDS011;38422;53.172;6.974;2024-01-06T02:38:00;14.15;;;8.25;;
52512;SDS011;38422;53.172;6.974;2024-01-06T02:40:26;12.13;;;7.68;;
52512;SDS011;38422;53.172;6.974;2024-01-06T02:42:52;11.05;;;7.55;;
52512;SDS011;38422;53.172;6.974;2024-01-06T02:45:18;10.15;;;7.20;;
52512;SDS011;38422;53.172;6.974;2024-01-06T02:47:44;10.88;;;7.28;;
52512;SDS011;38422;53.172;6.974;2024-01-06T02:50:09;10.88;;;7.40;;
52512;SDS011;38422;53.172;6.974;2024-01-06T02:52:35;11.40;;;7.53;;
52512;SDS011;38422;53.172;6.974;2024-01-06T02:55:01;10.60;;;8.00;;
52512;SDS011;38422;53.172;6.974;2024-01-06T02:57:27;11.70;;;7.80;;
52512;SDS011;38422;53.172;6.974;2024-01-06T02:59:54;11.65;;;7.45;;
52512;SDS011;38422;53.172;6.974;2024-01-06T03:02:20;11.27;;;7.25;;
52512;SDS011;38422;53.172;6.974;2024-01-06T03:04:45;10.40;;;7.10;;
52512;SDS011;38422;53.172;6.974;2024-01-06T03:07:11;11.10;;;7.78;;
52512;SDS011;38422;53.172;6.974;2024-01-06T03:09:37;12.25;;;7.82;;
52512;SDS011;38422;53.172;6.974;2024-01-06T03:12:04;12.60;;;7.60;;
52512;SDS011;38422;53.172;6.974;2024-01-06T03:14:36;10.77;;;7.35;;
52512;SDS011;38422;53.172;6.974;2024-01-06T03:17:02;10.77;;;7.10;;
52512;SDS011;38422;53.172;6.974;2024-01-06T03:19:29;11.05;;;7.32;;
52512;SDS011;38422;53.172;6.974;2024-01-06T03:21:56;11.85;;;7.60;;
52512;SDS011;38422;53.172;6.974;2024-01-06T03:24:22;12.27;;;7.07;;
52512;SDS011;38422;53.172;6.974;2024-01-06T03:26:48;11.85;;;7.70;;
52512;SDS011;38422;53.172;6.974;2024-01-06T03:29:14;11.40;;;7.30;;
52512;SDS011;38422;53.172;6.974;2024-01-06T03:31:46;9.65;;;7.28;;
52512;SDS011;38422;53.172;6.974;2024-01-06T03:34:12;10.60;;;7.38;;
52512;SDS011;38422;53.172;6.974;2024-01-06T03:36:38;12.85;;;7.63;;
52512;SDS011;38422;53.172;6.974;2024-01-06T03:39:04;10.85;;;7.07;;
52512;SDS011;38422;53.172;6.974;2024-01-06T03:41:31;10.85;;;6.88;;
52512;SDS011;38422;53.172;6.974;2024-01-06T03:43:56;11.13;;;7.07;;
52512;SDS011;38422;53.172;6.974;2024-01-06T03:46:22;10.45;;;7.18;;
52512;SDS011;38422;53.172;6.974;2024-01-06T03:48:48;11.98;;;7.13;;
52512;SDS011;38422;53.172;6.974;2024-01-06T03:51:14;10.68;;;6.88;;
52512;SDS011;38422;53.172;6.974;2024-01-06T03:53:40;12.05;;;6.50;;
52512;SDS011;38422;53.172;6.974;2024-01-06T03:56:06;12.55;;;6.57;;
52512;SDS011;38422;53.172;6.974;2024-01-06T03:58:32;9.52;;;6.47;;
52512;SDS011;38422;53.172;6.974;2024-01-06T04:00:57;9.43;;;6.13;;
52512;SDS011;38422;53.172;6.974;2024-01-06T04:03:23;9.68;;;6.57;;
52512;SDS011;38422;53.172;6.974;2024-01-06T04:05:49;9.88;;;6.30;;
52512;SDS011;38422;53.172;6.974;2024-01-06T04:08:14;9.07;;;6.25;;
52512;SDS011;38422;53.172;6.974;2024-01-06T04:10:40;8.95;;;6.28;;
52512;SDS011;38422;53.172;6.974;2024-01-06T04:13:06;9.70;;;6.72;;
52512;SDS011;38422;53.172;6.974;2024-01-06T04:15:32;9.05;;;6.43;;
52512;SDS011;38422;53.172;6.974;2024-01-06T04:18:01;10.50;;;6.65;;
52512;SDS011;38422;53.172;6.974;2024-01-06T04:20:28;10.95;;;6.75;;
52512;SDS011;38422;53.172;6.974;2024-01-06T04:22:54;12.02;;;6.60;;
52512;SDS011;38422;53.172;6.974;2024-01-06T04:25:20;9.85;;;6.72;;
52512;SDS011;38422;53.172;6.974;2024-01-06T04:27:46;9.35;;;6.72;;
52512;SDS011;38422;53.172;6.974;2024-01-06T04:30:13;10.43;;;6.38;;
52512;SDS011;38422;53.172;6.974;2024-01-06T04:32:39;9.68;;;6.30;;
52512;SDS011;38422;53.172;6.974;2024-01-06T04:35:06;11.00;;;7.25;;
52512;SDS011;38422;53.172;6.974;2024-01-06T04:37:32;12.00;;;7.20;;
52512;SDS011;38422;53.172;6.974;2024-01-06T04:39:57;10.45;;;7.05;;
52512;SDS011;38422;53.172;6.974;2024-01-06T04:42:23;11.88;;;6.93;;
52512;SDS011;38422;53.172;6.974;2024-01-06T04:44:49;11.95;;;6.90;;
52512;SDS011;38422;53.172;6.974;2024-01-06T04:47:15;11.02;;;7.18;;
52512;SDS011;38422;53.172;6.974;2024-01-06T04:49:41;11.73;;;7.60;;
52512;SDS011;38422;53.172;6.974;2024-01-06T04:52:07;10.73;;;6.55;;
52512;SDS011;38422;53.172;6.974;2024-01-06T04:54:32;10.15;;;6.78;;
52512;SDS011;38422;53.172;6.974;2024-01-06T04:56:58;9.52;;;6.25;;
52512;SDS011;38422;53.172;6.974;2024-01-06T04:59:24;9.30;;;6.47;;
52512;SDS011;38422;53.172;6.974;2024-01-06T05:01:50;8.75;;;6.30;;
52512;SDS011;38422;53.172;6.974;2024-01-06T05:04:17;9.23;;;6.53;;
52512;SDS011;38422;53.172;6.974;2024-01-06T05:06:43;8.82;;;6.15;;
52512;SDS011;38422;53.172;6.974;2024-01-06T05:09:09;8.90;;;6.57;;
52512;SDS011;38422;53.172;6.974;2024-01-06T05:11:35;9.77;;;6.30;;
52512;SDS011;38422;53.172;6.974;2024-01-06T05:14:00;8.35;;;6.40;;
52512;SDS011;38422;53.172;6.974;2024-01-06T05:16:26;9.07;;;6.10;;
52512;SDS011;38422;53.172;6.974;2024-01-06T05:18:52;8.60;;;5.97;;
52512;SDS011;38422;53.172;6.974;2024-01-06T05:21:18;9.05;;;6.10;;
52512;SDS011;38422;53.172;6.974;2024-01-06T05:23:44;9.32;;;5.78;;
52512;SDS011;38422;53.172;6.974;2024-01-06T05:26:10;9.32;;;5.97;;
52512;SDS011;38422;53.172;6.974;2024-01-06T05:28:37;7.80;;;5.40;;
52512;SDS011;38422;53.172;6.974;2024-01-06T05:31:02;7.85;;;5.57;;
52512;SDS011;38422;53.172;6.974;2024-01-06T05:33:28;7.60;;;5.35;;
52512;SDS011;38422;53.172;6.974;2024-01-06T05:35:54;8.65;;;5.80;;
52512;SDS011;38422;53.172;6.974;2024-01-06T05:38:19;8.35;;;5.90;;
52512;SDS011;38422;53.172;6.974;2024-01-06T05:40:45;8.65;;;5.70;;
52512;SDS011;38422;53.172;6.974;2024-01-06T05:43:11;9.57;;;5.82;;
52512;SDS011;38422;53.172;6.974;2024-01-06T05:45:36;7.80;;;5.82;;
52512;SDS011;38422;53.172;6.974;2024-01-06T05:48:03;8.60;;;6.30;;
52512;SDS011;38422;53.172;6.974;2024-01-06T05:50:33;8.18;;;6.30;;
52512;SDS011;38422;53.172;6.974;2024-01-06T05:52:58;8.80;;;6.18;;
52512;SDS011;38422;53.172;6.974;2024-01-06T05:55:24;8.73;;;5.88;;
52512;SDS011;38422;53.172;6.974;2024-01-06T05:57:50;9.07;;;6.35;;
52512;SDS011;38422;53.172;6.974;2024-01-06T06:00:16;9.52;;;5.97;;
52512;SDS011;38422;53.172;6.974;2024-01-06T06:02:42;7.88;;;5.53;;
52512;SDS011;38422;53.172;6.974;2024-01-06T06:05:08;8.02;;;5.55;;
52512;SDS011;38422;53.172;6.974;2024-01-06T06:07:33;8.05;;;5.60;;
52512;SDS011;38422;53.172;6.974;2024-01-06T06:10:05;9.30;;;5.78;;
52512;SDS011;38422;53.172;6.974;2024-01-06T06:12:34;8.05;;;5.45;;
52512;SDS011;38422;53.172;6.974;2024-01-06T06:15:01;8.65;;;5.50;;
52512;SDS011;38422;53.172;6.974;2024-01-06T06:19:55;8.48;;;5.80;;
52512;SDS011;38422;53.172;6.974;2024-01-06T06:22:22;9.52;;;5.70;;
52512;SDS011;38422;53.172;6.974;2024-01-06T06:24:48;8.48;;;6.00;;
52512;SDS011;38422;53.172;6.974;2024-01-06T06:27:14;8.40;;;5.32;;
52512;SDS011;38422;53.172;6.974;2024-01-06T06:29:39;8.05;;;5.25;;
52512;SDS011;38422;53.172;6.974;2024-01-06T06:32:05;8.10;;;6.00;;
52512;SDS011;38422;53.172;6.974;2024-01-06T06:34:31;8.10;;;5.60;;
52512;SDS011;38422;53.172;6.974;2024-01-06T06:36:56;8.00;;;5.78;;
52512;SDS011;38422;53.172;6.974;2024-01-06T06:39:23;8.57;;;5.50;;
52512;SDS011;38422;53.172;6.974;2024-01-06T06:41:49;8.73;;;4.20;;
52512;SDS011;38422;53.172;6.974;2024-01-06T06:44:15;5.82;;;3.15;;
52512;SDS011;38422;53.172;6.974;2024-01-06T06:46:40;5.85;;;2.90;;
52512;SDS011;38422;53.172;6.974;2024-01-06T06:49:06;5.43;;;2.90;;
52512;SDS011;38422;53.172;6.974;2024-01-06T06:51:32;6.00;;;2.90;;
52512;SDS011;38422;53.172;6.974;2024-01-06T06:53:57;6.43;;;3.40;;
52512;SDS011;38422;53.172;6.974;2024-01-06T06:56:23;5.45;;;2.78;;
52512;SDS011;38422;53.172;6.974;2024-01-06T06:58:49;6.18;;;3.05;;
52512;SDS011;38422;53.172;6.974;2024-01-06T07:01:15;5.40;;;2.80;;
52512;SDS011;38422;53.172;6.974;2024-01-06T07:03:41;6.47;;;3.30;;
52512;SDS011;38422;53.172;6.974;2024-01-06T07:06:07;6.50;;;3.00;;
52512;SDS011;38422;53.172;6.974;2024-01-06T07:08:33;5.35;;;2.55;;
52512;SDS011;38422;53.172;6.974;2024-01-06T07:10:58;6.75;;;2.92;;
52512;SDS011;38422;53.172;6.974;2024-01-06T07:13:24;6.55;;;3.22;;
52512;SDS011;38422;53.172;6.974;2024-01-06T07:15:51;6.10;;;3.07;;
52512;SDS011;38422;53.172;6.974;2024-01-06T07:18:17;6.25;;;2.92;;
52512;SDS011;38422;53.172;6.974;2024-01-06T07:20:48;6.18;;;3.13;;
52512;SDS011;38422;53.172;6.974;2024-01-06T07:23:13;5.88;;;3.08;;
52512;SDS011;38422;53.172;6.974;2024-01-06T07:25:39;6.15;;;3.33;;
52512;SDS011;38422;53.172;6.974;2024-01-06T07:28:05;6.50;;;4.03;;
52512;SDS011;38422;53.172;6.974;2024-01-06T07:30:31;7.85;;;4.47;;
52512;SDS011;38422;53.172;6.974;2024-01-06T07:32:56;7.32;;;4.25;;
52512;SDS011;38422;53.172;6.974;2024-01-06T07:35:22;6.85;;;3.90;;
52512;SDS011;38422;53.172;6.974;2024-01-06T07:37:48;7.43;;;4.32;;
52512;SDS011;38422;53.172;6.974;2024-01-06T07:40:13;7.47;;;3.92;;
52512;SDS011;38422;53.172;6.974;2024-01-06T07:45:07;6.90;;;4.05;;
52512;SDS011;38422;53.172;6.974;2024-01-06T07:47:33;7.70;;;4.18;;
52512;SDS011;38422;53.172;6.974;2024-01-06T07:49:59;6.75;;;4.15;;
52512;SDS011;38422;53.172;6.974;2024-01-06T07:52:24;9.43;;;4.75;;
52512;SDS011;38422;53.172;6.974;2024-01-06T07:54:50;7.68;;;4.38;;
52512;SDS011;38422;53.172;6.974;2024-01-06T07:57:16;7.22;;;4.18;;
52512;SDS011;38422;53.172;6.974;2024-01-06T07:59:42;7.05;;;3.95;;
52512;SDS011;38422;53.172;6.974;2024-01-06T08:02:07;8.05;;;4.50;;
52512;SDS011;38422;53.172;6.974;2024-01-06T08:04:34;8.02;;;4.50;;
52512;SDS011;38422;53.172;6.974;2024-01-06T08:06:59;8.52;;;5.00;;
52512;SDS011;38422;53.172;6.974;2024-01-06T08:09:25;6.95;;;4.30;;
52512;SDS011;38422;53.172;6.974;2024-01-06T08:11:51;8.98;;;4.78;;
52512;SDS011;38422;53.172;6.974;2024-01-06T08:14:16;7.57;;;4.50;;
52512;SDS011;38422;53.172;6.974;2024-01-06T08:16:43;8.30;;;4.53;;
52512;SDS011;38422;53.172;6.974;2024-01-06T08:19:09;9.00;;;4.80;;
52512;SDS011;38422;53.172;6.974;2024-01-06T08:21:34;9.32;;;5.03;;
52512;SDS011;38422;53.172;6.974;2024-01-06T08:24:00;10.35;;;5.53;;
52512;SDS011;38422;53.172;6.974;2024-01-06T08:26:27;9.27;;;4.68;;
52512;SDS011;38422;53.172;6.974;2024-01-06T08:28:53;11.45;;;5.30;;
52512;SDS011;38422;53.172;6.974;2024-01-06T08:31:18;8.48;;;4.60;;
52512;SDS011;38422;53.172;6.974;2024-01-06T08:33:44;9.23;;;5.32;;
52512;SDS011;38422;53.172;6.974;2024-01-06T08:36:10;9.30;;;5.28;;
52512;SDS011;38422;53.172;6.974;2024-01-06T08:38:36;8.68;;;5.18;;
52512;SDS011;38422;53.172;6.974;2024-01-06T08:41:02;9.23;;;5.00;;
52512;SDS011;38422;53.172;6.974;2024-01-06T08:43:28;9.02;;;5.30;;
52512;SDS011;38422;53.172;6.974;2024-01-06T08:45:53;10.63;;;5.45;;
52512;SDS011;38422;53.172;6.974;2024-01-06T08:48:19;9.98;;;5.80;;
52512;SDS011;38422;53.172;6.974;2024-01-06T08:50:45;8.70;;;4.75;;
52512;SDS011;38422;53.172;6.974;2024-01-06T08:53:11;10.20;;;5.10;;
52512;SDS011;38422;53.172;6.974;2024-01-06T08:55:37;10.25;;;5.53;;
52512;SDS011;38422;53.172;6.974;2024-01-06T08:58:03;10.45;;;5.78;;
52512;SDS011;38422;53.172;6.974;2024-01-06T09:00:28;10.25;;;5.20;;
52512;SDS011;38422;53.172;6.974;2024-01-06T09:02:55;10.05;;;5.47;;
52512;SDS011;38422;53.172;6.974;2024-01-06T09:08:06;8.50;;;5.03;;
52512;SDS011;38422;53.172;6.974;2024-01-06T09:10:32;10.10;;;5.57;;
52512;SDS011;38422;53.172;6.974;2024-01-06T09:12:58;10.52;;;5.70;;
52512;SDS011;38422;53.172;6.974;2024-01-06T09:15:23;9.77;;;5.65;;
52512;SDS011;38422;53.172;6.974;2024-01-06T09:17:49;8.98;;;5.18;;
52512;SDS011;38422;53.172;6.974;2024-01-06T09:20:15;10.23;;;5.65;;
52512;SDS011;38422;53.172;6.974;2024-01-06T09:22:42;10.60;;;5.70;;
52512;SDS011;38422;53.172;6.974;2024-01-06T09:25:09;9.15;;;5.72;;
52512;SDS011;38422;53.172;6.974;2024-01-06T09:30:53;10.50;;;5.97;;
52512;SDS011;38422;53.172;6.974;2024-01-06T09:35:47;10.65;;;5.80;;
52512;SDS011;38422;53.172;6.974;2024-01-06T09:38:12;10.48;;;6.28;;
52512;SDS011;38422;53.172;6.974;2024-01-06T09:40:42;12.68;;;6.10;;
52512;SDS011;38422;53.172;6.974;2024-01-06T09:43:09;11.00;;;5.80;;
52512;SDS011;38422;53.172;6.974;2024-01-06T09:45:36;10.65;;;6.15;;
52512;SDS011;38422;53.172;6.974;2024-01-06T09:48:21;11.35;;;6.00;;
52512;SDS011;38422;53.172;6.974;2024-01-06T09:50:50;9.30;;;5.70;;
52512;SDS011;38422;53.172;6.974;2024-01-06T09:53:21;10.45;;;5.82;;
52512;SDS011;38422;53.172;6.974;2024-01-06T09:55:51;11.40;;;6.18;;
52512;SDS011;38422;53.172;6.974;2024-01-06T09:58:17;11.52;;;6.63;;
52512;SDS011;38422;53.172;6.974;2024-01-06T10:00:43;10.00;;;6.10;;
52512;SDS011;38422;53.172;6.974;2024-01-06T10:03:08;11.75;;;6.13;;
52512;SDS011;38422;53.172;6.974;2024-01-06T10:05:35;11.70;;;6.47;;
52512;SDS011;38422;53.172;6.974;2024-01-06T10:08:01;12.93;;;6.63;;
52512;SDS011;38422;53.172;6.974;2024-01-06T10:10:29;10.52;;;6.00;;
52512;SDS011;38422;53.172;6.974;2024-01-06T10:12:55;10.60;;;5.90;;
52512;SDS011;38422;53.172;6.974;2024-01-06T10:15:20;12.02;;;5.57;;
52512;SDS011;38422;53.172;6.974;2024-01-06T10:17:46;11.70;;;6.10;;
52512;SDS011;38422;53.172;6.974;2024-01-06T10:20:12;11.68;;;6.38;;
52512;SDS011;38422;53.172;6.974;2024-01-06T10:22:40;10.60;;;6.18;;
52512;SDS011;38422;53.172;6.974;2024-01-06T10:25:07;10.32;;;5.85;;
52512;SDS011;38422;53.172;6.974;2024-01-06T10:27:37;10.07;;;5.57;;
52512;SDS011;38422;53.172;6.974;2024-01-06T10:33:44;10.70;;;5.63;;
52512;SDS011;38422;53.172;6.974;2024-01-06T10:36:10;11.32;;;5.70;;
52512;SDS011;38422;53.172;6.974;2024-01-06T10:46:04;10.40;;;5.88;;
52512;SDS011;38422;53.172;6.974;2024-01-06T10:59:50;11.30;;;6.53;;
52512;SDS011;38422;53.172;6.974;2024-01-06T11:02:16;9.88;;;5.65;;
52512;SDS011;38422;53.172;6.974;2024-01-06T11:04:46;10.57;;;5.82;;
52512;SDS011;38422;53.172;6.974;2024-01-06T11:11:44;11.02;;;6.22;;
52512;SDS011;38422;53.172;6.974;2024-01-06T11:14:23;11.43;;;6.22;;
52512;SDS011;38422;53.172;6.974;2024-01-06T11:17:01;12.98;;;6.40;;
52512;SDS011;38422;53.172;6.974;2024-01-06T11:23:17;11.73;;;6.45;;
52512;SDS011;38422;53.172;6.974;2024-01-06T11:25:47;11.25;;;5.65;;
52512;SDS011;38422;53.172;6.974;2024-01-06T11:28:13;10.98;;;6.40;;
52512;SDS011;38422;53.172;6.974;2024-01-06T11:37:02;11.25;;;6.20;;
52512;SDS011;38422;53.172;6.974;2024-01-06T11:39:35;10.10;;;6.05;;
52512;SDS011;38422;53.172;6.974;2024-01-06T11:57:23;11.43;;;6.00;;
52512;SDS011;38422;53.172;6.974;2024-01-06T11:59:50;10.05;;;5.32;;
52512;SDS011;38422;53.172;6.974;2024-01-06T12:08:47;9.15;;;4.95;;
52512;SDS011;38422;53.172;6.974;2024-01-06T12:11:12;11.35;;;5.95;;
52512;SDS011;38422;53.172;6.974;2024-01-06T12:13:43;10.15;;;5.53;;
52512;SDS011;38422;53.172;6.974;2024-01-06T12:16:09;9.18;;;4.97;;
52512;SDS011;38422;53.172;6.974;2024-01-06T12:18:35;9.48;;;4.93;;
52512;SDS011;38422;53.172;6.974;2024-01-06T12:36:24;9.85;;;5.15;;
52512;SDS011;38422;53.172;6.974;2024-01-06T12:38:50;9.18;;;5.10;;
52512;SDS011;38422;53.172;6.974;2024-01-06T12:41:16;10.07;;;5.75;;
52512;SDS011;38422;53.172;6.974;2024-01-06T12:43:41;9.32;;;5.30;;
52512;SDS011;38422;53.172;6.974;2024-01-06T12:46:07;10.68;;;5.53;;
52512;SDS011;38422;53.172;6.974;2024-01-06T12:48:33;10.73;;;5.63;;
52512;SDS011;38422;53.172;6.974;2024-01-06T12:50:58;9.95;;;5.10;;
52512;SDS011;38422;53.172;6.974;2024-01-06T12:53:24;10.32;;;5.63;;
52512;SDS011;38422;53.172;6.974;2024-01-06T12:55:50;10.07;;;5.28;;
52512;SDS011;38422;53.172;6.974;2024-01-06T12:58:15;10.00;;;5.10;;
52512;SDS011;38422;53.172;6.974;2024-01-06T13:00:41;9.60;;;5.63;;
52512;SDS011;38422;53.172;6.974;2024-01-06T13:03:07;12.27;;;5.78;;
52512;SDS011;38422;53.172;6.974;2024-01-06T13:05:33;10.67;;;5.73;;
52512;SDS011;38422;53.172;6.974;2024-01-06T13:07:59;10.43;;;5.35;;
52512;SDS011;38422;53.172;6.974;2024-01-06T13:10:27;10.55;;;5.65;;
52512;SDS011;38422;53.172;6.974;2024-01-06T13:12:52;10.48;;;5.50;;
52512;SDS011;38422;53.172;6.974;2024-01-06T13:15:18;10.10;;;5.45;;
52512;SDS011;38422;53.172;6.974;2024-01-06T13:17:44;10.13;;;5.40;;
52512;SDS011;38422;53.172;6.974;2024-01-06T13:20:09;10.25;;;5.68;;
52512;SDS011;38422;53.172;6.974;2024-01-06T13:22:35;10.48;;;5.55;;
52512;SDS011;38422;53.172;6.974;2024-01-06T13:25:01;8.98;;;5.45;;
52512;SDS011;38422;53.172;6.974;2024-01-06T13:27:27;9.50;;;5.03;;
52512;SDS011;38422;53.172;6.974;2024-01-06T13:29:53;10.95;;;5.47;;
52512;SDS011;38422;53.172;6.974;2024-01-06T13:32:19;10.32;;;5.53;;
52512;SDS011;38422;53.172;6.974;2024-01-06T13:34:47;10.45;;;5.50;;
52512;SDS011;38422;53.172;6.974;2024-01-06T13:37:13;11.18;;;5.40;;
52512;SDS011;38422;53.172;6.974;2024-01-06T13:39:38;10.82;;;5.63;;
52512;SDS011;38422;53.172;6.974;2024-01-06T13:42:04;10.10;;;5.82;;
52512;SDS011;38422;53.172;6.974;2024-01-06T13:44:30;9.98;;;5.35;;
52512;SDS011;38422;53.172;6.974;2024-01-06T13:46:56;10.57;;;5.35;;
52512;SDS011;38422;53.172;6.974;2024-01-06T13:49:22;9.80;;;5.53;;
52512;SDS011;38422;53.172;6.974;2024-01-06T13:51:48;10.40;;;5.30;;
52512;SDS011;38422;53.172;6.974;2024-01-06T13:54:14;9.40;;;5.13;;
52512;SDS011;38422;53.172;6.974;2024-01-06T13:56:40;10.15;;;5.45;;
52512;SDS011;38422;53.172;6.974;2024-01-06T13:59:06;10.45;;;5.70;;
52512;SDS011;38422;53.172;6.974;2024-01-06T14:01:31;10.00;;;5.18;;
52512;SDS011;38422;53.172;6.974;2024-01-06T14:03:57;10.88;;;5.75;;
52512;SDS011;38422;53.172;6.974;2024-01-06T14:06:27;8.35;;;4.93;;
52512;SDS011;38422;53.172;6.974;2024-01-06T14:08:56;9.57;;;5.13;;
52512;SDS011;38422;53.172;6.974;2024-01-06T14:11:22;10.93;;;5.15;;
52512;SDS011;38422;53.172;6.974;2024-01-06T14:13:48;11.27;;;5.82;;
52512;SDS011;38422;53.172;6.974;2024-01-06T14:16:18;12.85;;;5.78;;
52512;SDS011;38422;53.172;6.974;2024-01-06T14:18:44;12.45;;;5.97;;
52512;SDS011;38422;53.172;6.974;2024-01-06T14:21:10;11.82;;;5.13;;
52512;SDS011;38422;53.172;6.974;2024-01-06T14:23:36;10.98;;;5.55;;
52512;SDS011;38422;53.172;6.974;2024-01-06T14:26:02;9.80;;;5.20;;
52512;SDS011;38422;53.172;6.974;2024-01-06T14:28:28;10.77;;;5.40;;
52512;SDS011;38422;53.172;6.974;2024-01-06T14:30:55;9.40;;;5.00;;
52512;SDS011;38422;53.172;6.974;2024-01-06T14:33:21;9.95;;;5.38;;
52512;SDS011;38422;53.172;6.974;2024-01-06T14:35:47;10.52;;;5.45;;
52512;SDS011;38422;53.172;6.974;2024-01-06T14:38:13;9.75;;;5.57;;
52512;SDS011;38422;53.172;6.974;2024-01-06T14:40:38;12.30;;;6.20;;
52512;SDS011;38422;53.172;6.974;2024-01-06T14:43:04;12.32;;;6.35;;
52512;SDS011;38422;53.172;6.974;2024-01-06T14:45:30;10.77;;;5.72;;
52512;SDS011;38422;53.172;6.974;2024-01-06T14:47:56;11.40;;;6.00;;
52512;SDS011;38422;53.172;6.974;2024-01-06T14:50:22;11.32;;;6.25;;
52512;SDS011;38422;53.172;6.974;2024-01-06T14:52:48;11.48;;;6.10;;
52512;SDS011;38422;53.172;6.974;2024-01-06T14:55:14;11.57;;;6.28;;
52512;SDS011;38422;53.172;6.974;2024-01-06T14:57:40;11.77;;;6.03;;
52512;SDS011;38422;53.172;6.974;2024-01-06T15:00:06;11.05;;;5.85;;
52512;SDS011;38422;53.172;6.974;2024-01-06T15:02:35;13.30;;;6.25;;
52512;SDS011;38422;53.172;6.974;2024-01-06T15:05:01;11.57;;;6.07;;
52512;SDS011;38422;53.172;6.974;2024-01-06T15:07:29;11.02;;;5.95;;
52512;SDS011;38422;53.172;6.974;2024-01-06T15:09:56;11.25;;;5.80;;
52512;SDS011;38422;53.172;6.974;2024-01-06T15:12:26;11.82;;;6.03;;
52512;SDS011;38422;53.172;6.974;2024-01-06T15:14:52;11.23;;;5.80;;
52512;SDS011;38422;53.172;6.974;2024-01-06T15:17:18;10.07;;;5.50;;
52512;SDS011;38422;53.172;6.974;2024-01-06T15:19:45;11.75;;;6.13;;
52512;SDS011;38422;53.172;6.974;2024-01-06T15:22:11;11.33;;;6.00;;
52512;SDS011;38422;53.172;6.974;2024-01-06T15:24:38;12.20;;;5.50;;
52512;SDS011;38422;53.172;6.974;2024-01-06T15:27:04;11.77;;;6.05;;
52512;SDS011;38422;53.172;6.974;2024-01-06T15:29:30;11.98;;;5.72;;
52512;SDS011;38422;53.172;6.974;2024-01-06T15:31:56;10.75;;;6.13;;
52512;SDS011;38422;53.172;6.974;2024-01-06T15:34:25;11.07;;;5.65;;
52512;SDS011;38422;53.172;6.974;2024-01-06T15:36:51;11.38;;;5.72;;
52512;SDS011;38422;53.172;6.974;2024-01-06T15:39:17;11.15;;;5.80;;
52512;SDS011;38422;53.172;6.974;2024-01-06T15:41:43;12.90;;;6.18;;
52512;SDS011;38422;53.172;6.974;2024-01-06T15:44:09;12.73;;;6.80;;
52512;SDS011;38422;53.172;6.974;2024-01-06T15:46:34;10.30;;;5.68;;
52512;SDS011;38422;53.172;6.974;2024-01-06T15:49:01;10.70;;;5.70;;
52512;SDS011;38422;53.172;6.974;2024-01-06T15:51:27;12.55;;;6.53;;
52512;SDS011;38422;53.172;6.974;2024-01-06T15:53:53;11.60;;;5.15;;
52512;SDS011;38422;53.172;6.974;2024-01-06T15:56:19;11.52;;;5.07;;
52512;SDS011;38422;53.172;6.974;2024-01-06T15:58:44;11.00;;;4.30;;
52512;SDS011;38422;53.172;6.974;2024-01-06T16:01:10;11.45;;;5.53;;
52512;SDS011;38422;53.172;6.974;2024-01-06T16:03:36;10.48;;;5.15;;